Time;durP1;ratioP1;P1;durP2;ratioP2;P2;SDS_P1;SDS_P2;PMS_P1;PMS_P2;Temp;Humidity;BMP_temperature;BMP_pressure;BME280_temperature;BME280_humidity;BME280_pressure;Samples;Min_cycle;Max_cycle;Signal;HPM_P1;HPM_P2
2022/12/10 00:00:00;;;;;;;82.33;38.00;;;2.60;99.90;;;;;;2061781;28;20019;-67
2022/12/10 00:01:10;;;;;;;81.70;39.33;;;2.60;99.90;;;;;;2055857;28;20992;-68
2022/12/10 00:02:11;;;;;;;80.22;39.92;;;2.60;99.90;;;;;;2055787;28;20065;-68
2022/12/10 00:03:12;;;;;;;79.68;39.55;;;2.60;99.90;;;;;;2057842;28;20520;-68
2022/12/10 00:04:13;;;;;;;80.07;39.30;;;2.60;99.90;;;;;;2059271;28;20023;-68
2022/12/10 00:05:14;;;;;;;80.57;39.85;;;2.60;99.90;;;;;;2055944;28;20544;-68
2022/12/10 00:06:21;;;;;;;80.40;38.97;;;2.60;99.90;;;;;;2055673;28;20034;-68
2022/12/10 00:07:22;;;;;;;78.43;38.20;;;2.60;99.90;;;;;;2056198;28;20134;-68
2022/12/10 00:08:22;;;;;;;77.35;38.55;;;2.50;99.90;;;;;;2056155;28;20516;-67
2022/12/10 00:09:23;;;;;;;82.10;39.22;;;2.50;99.90;;;;;;2056487;28;20107;-69
2022/12/10 00:10:24;;;;;;;78.20;38.05;;;2.50;99.90;;;;;;2056026;28;20046;-68
2022/12/10 00:11:24;;;;;;;79.78;38.10;;;2.50;99.90;;;;;;2056189;28;20035;-70
2022/12/10 00:12:25;;;;;;;82.20;39.25;;;2.50;99.90;;;;;;2064213;28;20034;-68
2022/12/10 00:13:26;;;;;;;78.28;39.00;;;2.50;99.90;;;;;;2057071;28;20089;-68
2022/12/10 00:14:27;;;;;;;81.53;39.67;;;2.60;99.90;;;;;;2056305;28;20042;-68
2022/12/10 00:15:27;;;;;;;78.53;38.45;;;2.60;99.90;;;;;;2056111;28;20047;-68
2022/12/10 00:16:30;;;;;;;77.78;37.47;;;2.60;99.90;;;;;;2055772;28;20485;-68
2022/12/10 00:17:31;;;;;;;79.63;38.55;;;2.50;99.90;;;;;;2056160;28;20038;-68
2022/12/10 00:18:33;;;;;;;75.85;37.33;;;2.60;99.90;;;;;;2056153;28;20057;-67
2022/12/10 00:19:34;;;;;;;76.70;38.47;;;2.60;99.90;;;;;;2055917;28;20080;-68
2022/12/10 00:20:36;;;;;;;77.53;38.35;;;2.60;99.90;;;;;;2056003;28;20085;-68
2022/12/10 00:21:37;;;;;;;76.25;37.25;;;2.60;99.90;;;;;;2063234;28;20026;-68
2022/12/10 00:22:38;;;;;;;74.50;36.88;;;2.60;99.90;;;;;;2063759;28;20030;-69
2022/12/10 00:23:39;;;;;;;79.32;38.85;;;2.50;99.90;;;;;;2056191;28;20041;-68
2022/12/10 00:24:40;;;;;;;72.05;36.35;;;2.50;99.90;;;;;;2056329;28;20034;-68
2022/12/10 00:25:41;;;;;;;75.05;37.30;;;2.50;99.90;;;;;;2055589;28;20485;-68
2022/12/10 00:26:41;;;;;;;80.85;38.97;;;2.50;99.90;;;;;;2056100;28;20473;-69
2022/12/10 00:27:42;;;;;;;79.72;38.38;;;2.50;99.90;;;;;;2055309;28;20034;-69
2022/12/10 00:28:44;;;;;;;77.63;38.17;;;2.50;99.90;;;;;;2055919;28;20391;-69
2022/12/10 00:29:45;;;;;;;76.07;37.58;;;2.50;99.90;;;;;;2056621;28;20133;-68
2022/12/10 00:30:46;;;;;;;82.25;38.30;;;2.50;99.90;;;;;;2055799;28;20034;-68
2022/12/10 00:31:46;;;;;;;80.15;38.60;;;2.50;99.90;;;;;;2064029;28;20172;-69
2022/12/10 00:32:47;;;;;;;82.85;38.53;;;2.60;99.90;;;;;;2057597;28;20367;-69
2022/12/10 00:33:51;;;;;;;82.75;38.03;;;2.60;99.90;;;;;;2055404;28;20142;-68
2022/12/10 00:34:52;;;;;;;79.70;37.80;;;2.50;99.90;;;;;;2048044;28;20030;-68
2022/12/10 00:36:00;;;;;;;77.95;37.67;;;2.50;99.90;;;;;;2047778;28;20023;-68
2022/12/10 00:37:01;;;;;;;78.65;36.78;;;2.50;99.90;;;;;;2049179;28;20106;-68
2022/12/10 00:38:03;;;;;;;82.00;38.28;;;2.50;99.90;;;;;;2048588;28;20394;-68
2022/12/10 00:39:04;;;;;;;83.90;39.33;;;2.50;99.90;;;;;;2032239;29;20044;-68
2022/12/10 00:40:05;;;;;;;82.03;36.97;;;2.50;99.90;;;;;;2039350;28;20032;-67
2022/12/10 00:41:08;;;;;;;84.43;39.65;;;2.50;99.90;;;;;;2055261;28;20038;-68
2022/12/10 00:42:08;;;;;;;84.35;39.45;;;2.50;99.90;;;;;;2055693;28;20445;-68
2022/12/10 00:43:09;;;;;;;80.35;38.20;;;2.50;99.90;;;;;;2055715;28;20058;-69
2022/12/10 00:44:10;;;;;;;81.47;37.88;;;2.50;99.90;;;;;;2055462;28;20027;-70
2022/12/10 00:45:12;;;;;;;78.85;37.17;;;2.60;99.90;;;;;;2055721;28;20126;-69
2022/12/10 00:46:15;;;;;;;80.32;36.97;;;2.60;99.90;;;;;;2054556;28;20034;-69
2022/12/10 00:47:15;;;;;;;76.78;36.85;;;2.60;99.90;;;;;;2055016;28;20073;-68
2022/12/10 00:48:16;;;;;;;77.15;37.67;;;2.50;99.90;;;;;;2055646;28;20519;-69
2022/12/10 00:49:17;;;;;;;80.25;38.30;;;2.50;99.90;;;;;;2055470;28;20366;-68
2022/12/10 00:50:17;;;;;;;79.60;37.80;;;2.50;99.90;;;;;;2055512;28;20486;-68
2022/12/10 00:51:20;;;;;;;82.85;38.95;;;2.50;99.90;;;;;;2054858;28;20085;-68
2022/12/10 00:52:21;;;;;;;79.57;38.22;;;2.50;99.90;;;;;;2054742;28;20098;-68
2022/12/10 00:53:24;;;;;;;81.47;38.30;;;2.50;99.90;;;;;;2054756;28;20075;-68
2022/12/10 00:54:24;;;;;;;74.43;36.20;;;2.50;99.90;;;;;;2059751;28;20117;-68
2022/12/10 00:55:25;;;;;;;75.95;36.75;;;2.50;99.90;;;;;;2058001;28;20089;-71
2022/12/10 00:56:29;;;;;;;80.15;37.65;;;2.50;99.90;;;;;;2054698;28;20038;-69
2022/12/10 00:57:30;;;;;;;79.95;37.78;;;2.50;99.90;;;;;;2062926;28;20034;-69
2022/12/10 00:58:32;;;;;;;78.30;37.83;;;2.50;99.90;;;;;;2054837;28;20506;-68
2022/12/10 00:59:33;;;;;;;74.95;37.60;;;2.50;99.90;;;;;;2058528;28;20369;-68
2022/12/10 01:00:34;;;;;;;76.70;37.03;;;2.50;99.90;;;;;;2056535;28;20034;-68
2022/12/10 01:01:38;;;;;;;81.05;37.83;;;2.50;99.90;;;;;;2046787;28;20031;-69
2022/12/10 01:02:38;;;;;;;75.13;36.33;;;2.50;99.90;;;;;;2047186;28;20062;-69
2022/12/10 01:03:40;;;;;;;74.30;35.28;;;2.50;99.90;;;;;;2046624;29;20568;-68
2022/12/10 01:04:41;;;;;;;74.10;35.83;;;2.50;99.90;;;;;;2054666;28;20070;-68
2022/12/10 01:05:42;;;;;;;76.38;36.70;;;2.50;99.90;;;;;;2054958;28;20026;-68
2022/12/10 01:06:53;;;;;;;76.53;37.40;;;2.50;99.90;;;;;;2055561;28;20042;-68
2022/12/10 01:07:54;;;;;;;77.28;36.55;;;2.50;99.90;;;;;;2062542;28;20037;-68
2022/12/10 01:09:00;;;;;;;76.32;36.75;;;2.50;99.90;;;;;;2062533;28;20461;-69
2022/12/10 01:10:01;;;;;;;80.25;37.65;;;2.50;99.90;;;;;;2055360;28;20026;-69
2022/12/10 01:11:02;;;;;;;77.45;36.75;;;2.50;99.90;;;;;;2055515;28;20577;-68
2022/12/10 01:12:03;;;;;;;75.60;35.97;;;2.50;99.90;;;;;;2062926;28;20038;-68
2022/12/10 01:13:04;;;;;;;80.13;37.88;;;2.50;99.90;;;;;;2054772;28;20035;-68
2022/12/10 01:14:13;;;;;;;80.05;37.55;;;2.50;99.90;;;;;;2054293;28;20612;-68
2022/12/10 01:15:14;;;;;;;75.47;36.25;;;2.50;99.90;;;;;;2055617;28;20113;-68
2022/12/10 01:16:17;;;;;;;79.00;37.30;;;2.50;99.90;;;;;;2055336;28;20022;-68
2022/12/10 01:17:21;;;;;;;72.35;34.72;;;2.50;99.90;;;;;;2054886;28;20105;-67
2022/12/10 01:18:21;;;;;;;81.68;37.30;;;2.50;99.90;;;;;;2054423;28;20152;-68
2022/12/10 01:19:22;;;;;;;79.43;37.78;;;2.50;99.90;;;;;;2054822;28;20486;-67
2022/12/10 01:20:23;;;;;;;83.63;38.97;;;2.40;99.90;;;;;;2055378;28;20121;-70
2022/12/10 01:21:25;;;;;;;77.45;38.40;;;2.50;99.90;;;;;;2054984;28;20054;-69
2022/12/10 01:22:26;;;;;;;78.97;37.38;;;2.40;99.90;;;;;;2055276;28;20050;-70
2022/12/10 01:23:27;;;;;;;82.85;37.33;;;2.40;99.90;;;;;;2055532;28;20034;-69
2022/12/10 01:24:29;;;;;;;78.03;36.17;;;2.50;99.90;;;;;;2055768;28;20038;-69
2022/12/10 01:25:30;;;;;;;76.80;36.22;;;2.50;99.90;;;;;;2055509;28;20038;-68
2022/12/10 01:26:33;;;;;;;79.35;37.30;;;2.50;99.90;;;;;;2062522;28;20018;-66
2022/12/10 01:27:35;;;;;;;79.38;37.15;;;2.50;99.90;;;;;;2054950;28;20030;-72
2022/12/10 01:28:38;;;;;;;79.38;36.90;;;2.40;99.90;;;;;;2054700;28;20066;-69
2022/12/10 01:29:38;;;;;;;81.80;38.10;;;2.40;99.90;;;;;;2054573;28;20069;-69
2022/12/10 01:30:39;;;;;;;80.90;37.08;;;2.40;99.90;;;;;;2054602;28;20035;-70
2022/12/10 01:31:40;;;;;;;80.15;37.28;;;2.50;99.90;;;;;;2055327;28;20027;-69
2022/12/10 01:32:41;;;;;;;77.72;35.72;;;2.50;99.90;;;;;;2054817;28;20038;-68
2022/12/10 01:33:42;;;;;;;78.22;36.75;;;2.40;99.90;;;;;;2055656;28;20031;-69
2022/12/10 01:34:43;;;;;;;77.57;37.03;;;2.40;99.90;;;;;;2055949;28;20037;-69
2022/12/10 01:35:43;;;;;;;77.53;36.90;;;2.40;99.90;;;;;;2054569;28;20042;-68
2022/12/10 01:36:48;;;;;;;82.82;37.55;;;2.40;99.90;;;;;;2055102;28;20030;-69
2022/12/10 01:37:49;;;;;;;76.60;35.72;;;2.40;99.90;;;;;;2055574;28;20034;-68
2022/12/10 01:38:50;;;;;;;78.80;36.22;;;2.40;99.90;;;;;;2054692;28;20057;-68
2022/12/10 01:39:51;;;;;;;77.53;36.42;;;2.30;99.90;;;;;;2055297;28;20046;-68
2022/12/10 01:40:52;;;;;;;75.18;35.38;;;2.30;99.90;;;;;;2054621;28;20632;-68
2022/12/10 01:41:55;;;;;;;76.55;35.58;;;2.30;99.90;;;;;;2054648;28;20030;-69
2022/12/10 01:42:56;;;;;;;72.82;34.78;;;2.30;99.90;;;;;;2055610;28;20023;-69
2022/12/10 01:44:01;;;;;;;75.80;35.47;;;2.30;99.90;;;;;;2054826;28;20070;-69
2022/12/10 01:45:07;;;;;;;78.80;36.05;;;2.30;99.90;;;;;;2054865;28;20500;-69
2022/12/10 01:46:08;;;;;;;77.97;36.08;;;2.20;99.90;;;;;;2054041;28;20102;-68
2022/12/10 01:47:10;;;;;;;81.13;36.97;;;2.20;99.90;;;;;;2047337;28;20055;-68
2022/12/10 01:48:11;;;;;;;77.55;35.97;;;2.30;99.90;;;;;;2047300;28;20078;-68
2022/12/10 01:49:20;;;;;;;79.65;36.40;;;2.30;99.90;;;;;;2053359;28;20109;-69
2022/12/10 01:50:21;;;;;;;77.82;36.25;;;2.30;99.90;;;;;;2055178;28;20081;-68
2022/12/10 01:51:23;;;;;;;77.07;36.17;;;2.30;99.90;;;;;;2054484;28;20034;-68
2022/12/10 01:52:24;;;;;;;74.22;34.78;;;2.30;99.90;;;;;;2054628;28;20031;-68
2022/12/10 01:53:25;;;;;;;77.45;36.70;;;2.30;99.90;;;;;;2062744;28;20132;-69
2022/12/10 01:54:32;;;;;;;80.10;36.33;;;2.30;99.90;;;;;;2054922;28;20052;-68
2022/12/10 01:55:38;;;;;;;75.10;35.95;;;2.30;99.90;;;;;;2056636;28;20065;-68
2022/12/10 01:56:44;;;;;;;75.78;36.28;;;2.30;99.90;;;;;;2056376;28;20035;-69
2022/12/10 01:57:45;;;;;;;76.45;34.88;;;2.40;99.90;;;;;;2062298;28;20044;-68
2022/12/10 01:58:48;;;;;;;73.90;35.38;;;2.30;99.90;;;;;;2062390;28;20037;-69
2022/12/10 01:59:53;;;;;;;78.63;37.22;;;2.30;99.90;;;;;;2055057;28;20469;-68
2022/12/10 02:01:35;;;;;;;74.45;34.78;;;2.30;99.90;;;;;;2055150;28;20079;-68
2022/12/10 02:02:55;;;;;;;79.53;35.45;;;2.30;99.90;;;;;;2054980;28;20662;-68
2022/12/10 02:04:01;;;;;;;75.82;35.88;;;2.30;99.90;;;;;;2055183;28;20039;-68
2022/12/10 02:05:22;;;;;;;74.07;34.30;;;2.30;99.90;;;;;;2055056;28;20140;-68
2022/12/10 02:06:35;;;;;;;74.25;34.60;;;2.30;99.90;;;;;;2055193;28;20033;-69
2022/12/10 02:07:35;;;;;;;76.00;34.72;;;2.30;99.90;;;;;;2046488;28;20046;-69
2022/12/10 02:08:46;;;;;;;75.15;34.80;;;2.30;99.90;;;;;;2046424;28;20042;-68
2022/12/10 02:09:55;;;;;;;74.80;35.05;;;2.30;99.90;;;;;;2054555;28;20798;-69
2022/12/10 02:11:13;;;;;;;74.32;34.38;;;2.30;99.90;;;;;;2054835;28;20782;-69
2022/12/10 02:12:25;;;;;;;75.22;34.47;;;2.30;99.90;;;;;;2051162;28;20156;-68
2022/12/10 02:13:28;;;;;;;70.90;34.05;;;2.40;99.90;;;;;;2058306;28;20093;-68
2022/12/10 02:14:58;;;;;;;74.20;34.38;;;2.30;99.90;;;;;;2056174;28;20523;-68
2022/12/10 02:16:05;;;;;;;74.57;33.90;;;2.30;99.90;;;;;;2051420;28;20050;-68
2022/12/10 02:17:20;;;;;;;70.68;33.45;;;2.30;99.90;;;;;;2062274;28;20026;-68
2022/12/10 02:18:27;;;;;;;74.97;33.85;;;2.30;99.90;;;;;;2060746;28;20106;-67
2022/12/10 02:19:48;;;;;;;74.05;34.47;;;2.30;99.90;;;;;;2055251;28;20053;-69
2022/12/10 02:20:57;;;;;;;75.13;34.38;;;2.30;99.90;;;;;;2054380;28;20097;-70
2022/12/10 02:21:59;;;;;;;74.47;33.67;;;2.30;99.90;;;;;;2054526;28;20031;-68
2022/12/10 02:23:03;;;;;;;69.15;33.22;;;2.30;99.90;;;;;;2054338;28;20035;-68
2022/12/10 02:24:08;;;;;;;69.28;33.60;;;2.30;99.90;;;;;;2046856;28;20130;-68
2022/12/10 02:25:12;;;;;;;70.78;33.78;;;2.30;99.90;;;;;;2055383;28;20045;-67
2022/12/10 02:26:24;;;;;;;69.97;33.53;;;2.30;99.90;;;;;;2060418;28;20507;-68
2022/12/10 02:27:53;;;;;;;68.05;32.70;;;2.30;99.90;;;;;;2055796;28;20081;-68
2022/12/10 02:29:14;;;;;;;71.35;32.25;;;2.30;99.90;;;;;;2051778;28;20045;-68
2022/12/10 02:30:16;;;;;;;66.93;31.58;;;2.30;99.90;;;;;;2050644;28;20169;-68
2022/12/10 02:31:22;;;;;;;68.30;32.72;;;2.30;99.90;;;;;;2055900;28;20162;-68
2022/12/10 02:32:33;;;;;;;68.13;32.47;;;2.30;99.90;;;;;;2047865;29;20027;-68
2022/12/10 02:33:39;;;;;;;64.22;31.77;;;2.30;99.90;;;;;;2056043;28;20117;-68
2022/12/10 02:34:47;;;;;;;71.93;32.85;;;2.30;99.90;;;;;;2056018;28;20039;-67
2022/12/10 02:35:51;;;;;;;66.22;32.35;;;2.30;99.90;;;;;;2063572;28;20027;-68
2022/12/10 02:36:54;;;;;;;66.72;31.90;;;2.30;99.90;;;;;;2063728;28;20109;-68
2022/12/10 02:38:11;;;;;;;64.43;31.35;;;2.30;99.90;;;;;;2063845;28;20026;-68
2022/12/10 02:39:20;;;;;;;69.43;32.53;;;2.20;99.90;;;;;;2055867;28;20034;-68
2022/12/10 02:40:31;;;;;;;65.03;31.08;;;2.20;99.90;;;;;;2049464;28;20027;-68
2022/12/10 02:41:38;;;;;;;66.82;32.65;;;2.30;99.90;;;;;;2056969;28;20049;-68
2022/12/10 02:42:42;;;;;;;69.25;33.17;;;2.20;99.90;;;;;;2056011;28;20023;-68
2022/12/10 02:43:46;;;;;;;68.05;32.85;;;2.20;99.90;;;;;;2056732;28;20157;-68
2022/12/10 02:44:49;;;;;;;67.53;32.67;;;2.20;99.90;;;;;;2055821;28;20626;-68
2022/12/10 02:45:55;;;;;;;70.28;32.45;;;2.20;99.90;;;;;;2041536;28;20028;-68
2022/12/10 02:46:59;;;;;;;69.57;33.05;;;2.20;99.90;;;;;;2058002;28;20168;-68
2022/12/10 02:48:06;;;;;;;65.85;31.23;;;2.20;99.90;;;;;;2063408;28;20031;-68
2022/12/10 02:49:14;;;;;;;65.93;32.22;;;2.30;99.90;;;;;;2048899;28;20122;-68
2022/12/10 02:50:18;;;;;;;63.17;32.03;;;2.30;99.90;;;;;;2048439;28;20114;-68
2022/12/10 02:51:18;;;;;;;66.63;32.08;;;2.30;99.90;;;;;;2056143;28;20102;-68
2022/12/10 02:52:20;;;;;;;64.40;31.00;;;2.30;99.90;;;;;;2057270;28;20026;-68
2022/12/10 02:53:25;;;;;;;64.35;32.40;;;2.30;99.90;;;;;;2056428;28;20054;-68
2022/12/10 02:54:47;;;;;;;67.50;31.95;;;2.30;99.90;;;;;;2047376;28;20568;-68
2022/12/10 02:56:02;;;;;;;66.57;32.72;;;2.30;99.90;;;;;;2062200;28;20026;-68
2022/12/10 02:57:14;;;;;;;63.97;29.90;;;2.30;99.90;;;;;;2062096;28;20030;-68
2022/12/10 02:58:27;;;;;;;63.75;30.35;;;2.30;99.90;;;;;;2049093;28;20555;-67
2022/12/10 02:59:38;;;;;;;62.15;29.85;;;2.30;99.90;;;;;;2055875;28;20034;-68
2022/12/10 03:00:53;;;;;;;66.32;30.77;;;2.30;99.90;;;;;;2055688;28;20139;-67
2022/12/10 03:02:14;;;;;;;66.13;31.30;;;2.20;99.90;;;;;;2055634;28;20049;-67
2022/12/10 03:03:37;;;;;;;64.95;31.30;;;2.20;99.90;;;;;;2056104;28;20485;-68
2022/12/10 03:04:52;;;;;;;63.17;30.38;;;2.30;99.90;;;;;;2055682;28;20034;-69
2022/12/10 03:06:35;;;;;;;64.38;30.73;;;2.30;99.90;;;;;;2055727;28;20042;-69
2022/12/10 03:07:40;;;;;;;64.03;29.80;;;2.30;99.90;;;;;;2056182;28;20557;-69
2022/12/10 03:08:51;;;;;;;63.42;30.30;;;2.30;99.90;;;;;;2056213;28;20049;-68
2022/12/10 03:09:57;;;;;;;63.90;30.55;;;2.20;99.90;;;;;;2047810;28;20022;-68
2022/12/10 03:11:04;;;;;;;63.78;30.67;;;2.30;99.90;;;;;;2055513;28;20082;-68
2022/12/10 03:12:32;;;;;;;66.03;31.67;;;2.30;99.90;;;;;;2056411;28;20037;-68
2022/12/10 03:13:38;;;;;;;65.85;31.40;;;2.30;99.90;;;;;;2056352;28;20029;-68
2022/12/10 03:14:40;;;;;;;66.18;31.35;;;2.20;99.90;;;;;;2056231;28;20085;-68
2022/12/10 03:15:42;;;;;;;64.82;31.05;;;2.20;99.90;;;;;;2055830;28;20094;-68
2022/12/10 03:16:55;;;;;;;65.68;31.05;;;2.20;99.90;;;;;;2056311;28;20065;-68
2022/12/10 03:17:58;;;;;;;66.25;31.10;;;2.20;99.90;;;;;;2056155;28;20113;-69
2022/12/10 03:19:04;;;;;;;62.83;30.10;;;2.20;99.90;;;;;;2056191;28;20835;-68
2022/12/10 03:20:08;;;;;;;66.03;31.40;;;2.10;99.90;;;;;;2056301;28;20054;-68
2022/12/10 03:21:09;;;;;;;70.22;32.60;;;2.20;99.90;;;;;;2056157;28;20031;-68
2022/12/10 03:22:13;;;;;;;67.55;32.72;;;2.20;99.90;;;;;;2059232;28;20033;-68
2022/12/10 03:23:16;;;;;;;65.72;31.20;;;2.20;99.90;;;;;;2063387;28;20030;-69
2022/12/10 03:24:18;;;;;;;69.60;33.00;;;2.20;99.90;;;;;;2055776;28;20025;-68
2022/12/10 03:25:24;;;;;;;67.75;32.63;;;2.20;99.90;;;;;;2056161;28;20037;-69
2022/12/10 03:26:26;;;;;;;67.70;32.55;;;2.20;99.90;;;;;;2047905;28;20776;-68
2022/12/10 03:27:29;;;;;;;70.85;33.38;;;2.30;99.90;;;;;;2048117;28;20034;-69
2022/12/10 03:28:34;;;;;;;74.07;33.88;;;2.20;99.90;;;;;;2047997;28;20111;-69
2022/12/10 03:29:57;;;;;;;70.32;33.28;;;2.30;99.90;;;;;;2054280;28;20669;-68
2022/12/10 03:30:58;;;;;;;68.13;32.47;;;2.20;99.90;;;;;;2056131;28;20026;-68
2022/12/10 03:32:00;;;;;;;65.75;31.77;;;2.20;99.90;;;;;;2056073;28;20800;-68
2022/12/10 03:33:02;;;;;;;72.80;33.22;;;2.20;99.90;;;;;;2055984;28;20178;-69
2022/12/10 03:34:03;;;;;;;70.95;33.88;;;2.20;99.90;;;;;;2055950;28;20027;-69
2022/12/10 03:35:05;;;;;;;73.45;34.08;;;2.20;99.90;;;;;;2056146;28;20117;-69
2022/12/10 03:36:08;;;;;;;69.25;32.85;;;2.20;99.90;;;;;;2055953;28;20047;-69
2022/12/10 03:37:10;;;;;;;73.53;34.08;;;2.20;99.90;;;;;;2055410;28;20493;-69
2022/12/10 03:38:11;;;;;;;73.75;34.25;;;2.20;99.90;;;;;;2056072;28;20094;-70
2022/12/10 03:39:13;;;;;;;70.25;33.22;;;2.30;99.90;;;;;;2056224;28;20050;-68
2022/12/10 03:40:14;;;;;;;68.72;32.90;;;2.20;99.90;;;;;;2056331;28;20041;-69
2022/12/10 03:41:15;;;;;;;71.10;33.53;;;2.20;99.90;;;;;;2056391;28;20080;-69
2022/12/10 03:42:15;;;;;;;71.03;33.33;;;2.30;99.90;;;;;;2056134;28;20097;-68
2022/12/10 03:43:16;;;;;;;72.38;33.88;;;2.20;99.90;;;;;;2055773;28;20070;-68
2022/12/10 03:44:37;;;;;;;68.32;32.83;;;2.30;99.90;;;;;;2055440;28;20110;-69
2022/12/10 03:45:40;;;;;;;71.13;32.38;;;2.30;99.90;;;;;;2055736;28;20436;-69
2022/12/10 03:46:40;;;;;;;66.40;31.63;;;2.20;99.90;;;;;;2056208;28;20113;-69
2022/12/10 03:47:42;;;;;;;67.38;32.08;;;2.20;99.90;;;;;;2056178;28;20389;-69
2022/12/10 03:48:42;;;;;;;68.20;32.60;;;2.30;99.90;;;;;;2062701;28;20022;-68
2022/12/10 03:49:43;;;;;;;66.75;32.05;;;2.20;99.90;;;;;;2055222;28;20019;-69
2022/12/10 03:50:44;;;;;;;66.35;32.00;;;2.20;99.90;;;;;;2056277;28;20015;-69
2022/12/10 03:51:44;;;;;;;69.50;32.97;;;2.20;99.90;;;;;;2056169;28;20120;-69
2022/12/10 03:52:45;;;;;;;71.13;32.58;;;2.10;99.90;;;;;;2056241;28;20374;-68
2022/12/10 03:53:48;;;;;;;68.18;32.63;;;2.20;99.90;;;;;;2056141;28;20358;-68
2022/12/10 03:54:49;;;;;;;67.55;32.83;;;2.20;99.90;;;;;;2056054;28;20050;-69
2022/12/10 03:55:49;;;;;;;69.32;32.60;;;2.20;99.90;;;;;;2055953;28;20061;-69
2022/12/10 03:56:50;;;;;;;66.75;32.88;;;2.20;99.90;;;;;;2063184;28;20113;-69
2022/12/10 03:57:51;;;;;;;72.85;32.50;;;2.20;99.90;;;;;;2063250;28;20046;-69
2022/12/10 03:58:51;;;;;;;70.45;33.33;;;2.20;99.90;;;;;;2056037;28;20026;-68
2022/12/10 03:59:52;;;;;;;70.25;33.30;;;2.20;99.90;;;;;;2063346;28;20496;-68
2022/12/10 04:00:53;;;;;;;74.32;33.75;;;2.20;99.90;;;;;;2055300;28;20617;-68
2022/12/10 04:01:53;;;;;;;70.43;33.78;;;2.20;99.90;;;;;;2055285;28;20416;-69
2022/12/10 04:02:54;;;;;;;68.90;32.60;;;2.20;99.90;;;;;;2056141;28;20073;-69
2022/12/10 04:03:55;;;;;;;69.25;33.10;;;2.20;99.90;;;;;;2055695;28;20038;-68
2022/12/10 04:04:55;;;;;;;66.18;31.75;;;2.20;99.90;;;;;;2062924;28;20479;-69
2022/12/10 04:06:04;;;;;;;69.25;32.42;;;2.20;99.90;;;;;;2062852;28;20073;-69
2022/12/10 04:07:04;;;;;;;66.95;32.03;;;2.20;99.90;;;;;;2055889;28;20096;-69
2022/12/10 04:08:05;;;;;;;66.57;31.50;;;2.20;99.90;;;;;;2055788;28;20043;-69
2022/12/10 04:09:06;;;;;;;65.40;31.92;;;2.20;99.90;;;;;;2055121;28;20114;-69
2022/12/10 04:10:07;;;;;;;65.60;31.27;;;2.20;99.90;;;;;;2055189;28;20035;-68
2022/12/10 04:11:10;;;;;;;67.90;31.98;;;2.20;99.90;;;;;;2055805;28;20027;-67
2022/12/10 04:12:11;;;;;;;67.65;32.25;;;2.20;99.90;;;;;;2063224;28;20038;-68
2022/12/10 04:17:09;;;;;;;65.22;31.05;;;2.20;99.90;;;;;;2056062;28;20118;-68
2022/12/10 04:18:10;;;;;;;67.82;31.80;;;2.20;99.90;;;;;;2057587;28;20037;-68
2022/12/10 04:19:13;;;;;;;67.90;31.58;;;2.20;99.90;;;;;;2054941;28;20551;-68
2022/12/10 04:26:56;;;;;;;65.82;31.08;;;2.20;99.90;;;;;;2047182;29;20042;-68
2022/12/10 04:27:57;;;;;;;67.93;31.58;;;2.20;99.90;;;;;;2047331;29;20027;-68
2022/12/10 04:28:57;;;;;;;68.57;32.17;;;2.20;99.90;;;;;;2047940;29;20375;-68
2022/12/10 04:29:59;;;;;;;66.18;31.65;;;2.20;99.90;;;;;;2047244;28;20030;-67
2022/12/10 04:31:00;;;;;;;64.82;31.70;;;2.30;99.90;;;;;;2047528;29;20118;-69
2022/12/10 04:32:00;;;;;;;65.72;30.92;;;2.20;99.90;;;;;;2048062;29;20430;-69
2022/12/10 04:33:01;;;;;;;67.22;31.60;;;2.20;99.90;;;;;;2051798;28;20026;-68
2022/12/10 04:34:02;;;;;;;66.32;32.45;;;2.20;99.90;;;;;;2056245;28;20084;-68
2022/12/10 04:35:03;;;;;;;67.03;32.63;;;2.20;99.90;;;;;;2056133;28;20031;-68
2022/12/10 04:36:04;;;;;;;67.20;31.30;;;2.20;99.90;;;;;;2055730;28;20417;-68
2022/12/10 04:37:05;;;;;;;67.85;31.55;;;2.20;99.90;;;;;;2056206;28;20042;-69
2022/12/10 04:38:06;;;;;;;65.97;31.35;;;2.20;99.90;;;;;;2056245;28;20354;-68
2022/12/10 04:39:07;;;;;;;68.50;32.95;;;2.20;99.90;;;;;;2055882;28;20046;-68
2022/12/10 04:40:08;;;;;;;66.65;31.15;;;2.20;99.90;;;;;;2055851;28;20042;-68
2022/12/10 04:41:15;;;;;;;63.95;31.27;;;2.20;99.90;;;;;;2056019;28;20089;-68
2022/12/10 04:42:16;;;;;;;62.85;29.90;;;2.20;99.90;;;;;;2055959;28;20038;-68
2022/12/10 04:43:16;;;;;;;63.30;30.50;;;2.20;99.90;;;;;;2055904;28;20023;-68
2022/12/10 04:44:18;;;;;;;63.85;31.00;;;2.20;99.90;;;;;;2057143;28;20022;-68
2022/12/10 04:45:19;;;;;;;65.60;31.48;;;2.20;99.90;;;;;;2060149;28;20059;-69
2022/12/10 04:46:20;;;;;;;60.53;29.55;;;2.20;99.90;;;;;;2055506;28;20559;-69
2022/12/10 04:47:21;;;;;;;62.15;31.02;;;2.20;99.90;;;;;;2065204;28;20088;-68
2022/12/10 04:48:21;;;;;;;60.78;29.40;;;2.20;99.90;;;;;;2066249;28;20492;-68
2022/12/10 04:49:22;;;;;;;62.40;29.70;;;2.10;99.90;;;;;;2062545;28;20090;-68
2022/12/10 04:50:23;;;;;;;59.67;29.85;;;2.10;99.90;;;;;;2054772;28;20812;-68
2022/12/10 04:51:23;;;;;;;62.95;29.33;;;2.10;99.90;;;;;;2054850;28;20069;-68
2022/12/10 04:52:24;;;;;;;60.38;29.42;;;2.10;99.90;;;;;;2055572;28;20069;-69
2022/12/10 04:53:25;;;;;;;66.00;30.70;;;2.10;99.90;;;;;;2055527;28;20033;-68
2022/12/10 04:54:26;;;;;;;63.95;29.77;;;2.10;99.90;;;;;;2055291;28;20110;-70
2022/12/10 04:55:27;;;;;;;60.95;30.30;;;2.10;99.90;;;;;;2055553;28;20035;-69
2022/12/10 04:56:28;;;;;;;61.35;29.88;;;2.10;99.90;;;;;;2055093;28;20521;-68
2022/12/10 04:57:29;;;;;;;65.18;31.02;;;2.10;99.90;;;;;;2055611;28;20102;-69
2022/12/10 04:58:30;;;;;;;61.53;30.00;;;2.10;99.90;;;;;;2055389;28;20030;-69
2022/12/10 04:59:31;;;;;;;63.25;30.60;;;2.10;99.90;;;;;;2062896;28;20030;-68
2022/12/10 05:00:32;;;;;;;61.50;29.65;;;2.10;99.90;;;;;;2054589;28;20478;-68
2022/12/10 05:01:33;;;;;;;59.63;29.15;;;2.10;99.90;;;;;;2054735;28;20189;-68
2022/12/10 05:02:34;;;;;;;59.45;28.67;;;2.10;99.90;;;;;;2055121;28;20027;-68
2022/12/10 05:03:35;;;;;;;62.20;30.60;;;2.10;99.90;;;;;;2055318;28;20100;-68
2022/12/10 05:04:35;;;;;;;57.10;28.80;;;2.10;99.90;;;;;;2055172;28;20034;-68
2022/12/10 05:05:36;;;;;;;64.53;30.05;;;2.10;99.90;;;;;;2055147;28;20042;-68
2022/12/10 05:06:37;;;;;;;64.20;30.88;;;2.10;99.90;;;;;;2055405;28;20393;-68
2022/12/10 05:07:37;;;;;;;63.78;29.75;;;2.20;99.90;;;;;;2055432;28;20038;-68
2022/12/10 05:08:39;;;;;;;62.70;30.90;;;2.10;99.90;;;;;;2062785;28;20501;-68
2022/12/10 05:09:40;;;;;;;63.47;31.00;;;2.20;99.90;;;;;;2062856;28;20054;-69
2022/12/10 05:10:41;;;;;;;61.30;30.27;;;2.20;99.90;;;;;;2055345;28;20101;-69
2022/12/10 05:11:44;;;;;;;61.00;29.95;;;2.20;99.90;;;;;;2055425;28;20397;-69
2022/12/10 05:12:44;;;;;;;60.85;29.77;;;2.20;99.90;;;;;;2055468;28;20033;-69
2022/12/10 05:13:45;;;;;;;64.28;29.48;;;2.20;99.90;;;;;;2055432;28;20027;-68
2022/12/10 05:14:46;;;;;;;64.68;29.23;;;2.20;99.90;;;;;;2062927;28;20034;-68
2022/12/10 05:15:47;;;;;;;61.15;29.60;;;2.20;99.90;;;;;;2054367;28;20022;-69
2022/12/10 05:16:50;;;;;;;59.63;29.10;;;2.10;99.90;;;;;;2054728;28;20022;-69
2022/12/10 05:17:51;;;;;;;59.75;29.15;;;2.10;99.90;;;;;;2055489;28;20018;-69
2022/12/10 05:18:53;;;;;;;59.17;29.25;;;2.10;99.90;;;;;;2054732;28;20470;-68
2022/12/10 05:19:54;;;;;;;64.28;30.55;;;2.10;99.90;;;;;;2054992;28;20035;-68
2022/12/10 05:20:58;;;;;;;62.45;30.38;;;2.10;99.90;;;;;;2055334;28;20035;-68
2022/12/10 05:23:27;;;;;;;59.97;28.77;;;2.10;99.90;;;;;;2055867;28;20181;-69
2022/12/10 05:24:28;;;;;;;60.58;28.38;;;2.10;99.90;;;;;;2058183;28;20117;-69
2022/12/10 05:25:28;;;;;;;63.45;30.38;;;2.10;99.90;;;;;;2058188;28;20050;-69
2022/12/10 05:26:29;;;;;;;65.68;31.20;;;2.20;99.90;;;;;;2057352;28;20484;-69
2022/12/10 05:27:34;;;;;;;64.88;30.77;;;2.20;99.90;;;;;;2056831;28;20114;-69
2022/12/10 05:28:40;;;;;;;62.03;30.10;;;2.20;99.90;;;;;;2057135;28;20046;-69
2022/12/10 05:29:41;;;;;;;64.13;30.55;;;2.20;99.90;;;;;;2058313;28;20178;-69
2022/12/10 05:30:41;;;;;;;62.15;29.83;;;2.20;99.90;;;;;;2056558;28;20150;-69
2022/12/10 05:31:42;;;;;;;66.03;30.42;;;2.20;99.90;;;;;;2055284;28;20089;-69
2022/12/10 05:32:42;;;;;;;61.08;29.00;;;2.10;99.90;;;;;;2055276;28;20746;-69
2022/12/10 05:33:44;;;;;;;64.75;30.00;;;2.10;99.90;;;;;;2055292;28;20065;-69
2022/12/10 05:34:44;;;;;;;65.28;30.73;;;2.10;99.90;;;;;;2054612;28;20477;-69
2022/12/10 05:35:58;;;;;;;62.00;30.83;;;2.10;99.90;;;;;;2054393;28;20117;-68
2022/12/10 05:36:59;;;;;;;68.60;31.88;;;2.10;99.90;;;;;;2054518;28;20046;-69
2022/12/10 05:37:59;;;;;;;65.60;31.20;;;2.10;99.90;;;;;;2054514;28;20484;-69
2022/12/10 05:39:00;;;;;;;66.97;31.17;;;2.10;99.90;;;;;;2047163;29;20027;-69